KCLK/CLK METAR and TAF weather

Enter ICAO airport designator
Station Type Date Time Source
KCLK METAR 2020/09/21 05:35 UTC NOAA

KCLK 210535Z AUTO 00000KT 10SM CLR 15/10 A3021 RMK AO2


Station Type Date Time Source
KCLK Decoded METAR 2020/09/21 05:35 UTC NOAA

Clinton, Clinton Regional Airport, OK, United States (KCLK) 35-32-17N 098-55-17W
Sep 21, 2020 - 01:35 AM EDT / 2020.09.21 0535 UTC
Wind: Calm:0
Visibility: 10 mile(s):0
Sky conditions: clear
Temperature: 59 F (15 C)
Dew Point: 50 F (10 C)
Relative Humidity: 72%
Pressure (altimeter): 30.21 in. Hg (1023 hPa)
ob: KCLK 210535Z AUTO 00000KT 10SM CLR 15/10 A3021 RMK AO2
cycle: 5

Station Type Date Time Source
KCLK TAF UTC NOAA

Error!

Example: see airport list